sensor_id;sensor_type;location;lat;lon;timestamp;temperature;humidity
43995;DHT22;51687;52.160;5.298;2022-08-03T00:01:42;24.90;60.70
43995;DHT22;51687;52.160;5.298;2022-08-03T00:04:10;24.80;60.70
43995;DHT22;51687;52.160;5.298;2022-08-03T00:06:36;24.80;60.90
43995;DHT22;51687;52.160;5.298;2022-08-03T00:09:04;24.80;60.80
43995;DHT22;51687;52.160;5.298;2022-08-03T00:11:31;24.80;61.00
43995;DHT22;51687;52.160;5.298;2022-08-03T00:13:58;24.80;61.10
43995;DHT22;51687;52.160;5.298;2022-08-03T00:16:25;24.80;61.10
43995;DHT22;51687;52.160;5.298;2022-08-03T00:18:52;24.80;61.20
43995;DHT22;51687;52.160;5.298;2022-08-03T00:21:18;24.70;61.20
43995;DHT22;51687;52.160;5.298;2022-08-03T00:23:45;24.70;61.30
43995;DHT22;51687;52.160;5.298;2022-08-03T00:26:18;24.70;61.50
43995;DHT22;51687;52.160;5.298;2022-08-03T00:28:45;24.70;61.60
43995;DHT22;51687;52.160;5.298;2022-08-03T00:31:12;24.70;61.50
43995;DHT22;51687;52.160;5.298;2022-08-03T00:33:39;24.70;61.60
43995;DHT22;51687;52.160;5.298;2022-08-03T00:36:27;24.70;61.60
43995;DHT22;51687;52.160;5.298;2022-08-03T00:38:54;24.60;61.60
43995;DHT22;51687;52.160;5.298;2022-08-03T00:43:48;24.60;61.60
43995;DHT22;51687;52.160;5.298;2022-08-03T00:46:15;24.60;61.80
43995;DHT22;51687;52.160;5.298;2022-08-03T00:48:51;24.60;61.80
43995;DHT22;51687;52.160;5.298;2022-08-03T00:51:19;24.60;61.80
43995;DHT22;51687;52.160;5.298;2022-08-03T00:53:47;24.60;61.90
43995;DHT22;51687;52.160;5.298;2022-08-03T00:56:15;24.60;61.90
43995;DHT22;51687;52.160;5.298;2022-08-03T00:58:46;24.60;61.90
43995;DHT22;51687;52.160;5.298;2022-08-03T01:01:13;24.60;61.90
43995;DHT22;51687;52.160;5.298;2022-08-03T01:03:40;24.60;61.80
43995;DHT22;51687;52.160;5.298;2022-08-03T01:06:19;24.60;61.90
43995;DHT22;51687;52.160;5.298;2022-08-03T01:14:20;24.60;61.90
43995;DHT22;51687;52.160;5.298;2022-08-03T01:27:21;24.50;62.10
43995;DHT22;51687;52.160;5.298;2022-08-03T01:32:46;24.50;62.70
43995;DHT22;51687;52.160;5.298;2022-08-03T01:35:40;24.50;62.10
43995;DHT22;51687;52.160;5.298;2022-08-03T01:38:26;24.50;62.10
43995;DHT22;51687;52.160;5.298;2022-08-03T01:40:55;24.50;62.20
43995;DHT22;51687;52.160;5.298;2022-08-03T01:43:26;24.50;62.10
43995;DHT22;51687;52.160;5.298;2022-08-03T01:46:15;24.50;62.30
43995;DHT22;51687;52.160;5.298;2022-08-03T01:48:44;24.50;62.30
43995;DHT22;51687;52.160;5.298;2022-08-03T01:51:12;24.50;62.20
43995;DHT22;51687;52.160;5.298;2022-08-03T01:53:41;24.50;62.20
43995;DHT22;51687;52.160;5.298;2022-08-03T01:56:09;24.50;62.30
43995;DHT22;51687;52.160;5.298;2022-08-03T01:58:37;24.50;62.30
43995;DHT22;51687;52.160;5.298;2022-08-03T02:01:05;24.50;62.60
43995;DHT22;51687;52.160;5.298;2022-08-03T02:03:35;24.40;62.50
43995;DHT22;51687;52.160;5.298;2022-08-03T02:06:03;24.40;61.70
43995;DHT22;51687;52.160;5.298;2022-08-03T02:08:51;24.40;62.50
43995;DHT22;51687;52.160;5.298;2022-08-03T02:11:19;24.40;62.40
43995;DHT22;51687;52.160;5.298;2022-08-03T02:13:47;24.40;62.50
43995;DHT22;51687;52.160;5.298;2022-08-03T02:16:17;24.40;62.40
43995;DHT22;51687;52.160;5.298;2022-08-03T02:18:44;24.40;62.50
43995;DHT22;51687;52.160;5.298;2022-08-03T02:21:14;24.40;61.70
43995;DHT22;51687;52.160;5.298;2022-08-03T02:24:01;24.40;62.50
43995;DHT22;51687;52.160;5.298;2022-08-03T02:26:30;24.40;62.50
43995;DHT22;51687;52.160;5.298;2022-08-03T02:29:11;24.40;62.60
43995;DHT22;51687;52.160;5.298;2022-08-03T02:31:39;24.40;63.30
43995;DHT22;51687;52.160;5.298;2022-08-03T02:34:12;24.40;62.60
43995;DHT22;51687;52.160;5.298;2022-08-03T02:36:41;24.40;62.80
43995;DHT22;51687;52.160;5.298;2022-08-03T02:39:10;24.40;62.90
43995;DHT22;51687;52.160;5.298;2022-08-03T02:41:49;24.40;62.80
43995;DHT22;51687;52.160;5.298;2022-08-03T02:44:19;24.40;62.80
43995;DHT22;51687;52.160;5.298;2022-08-03T02:46:47;24.30;62.60
43995;DHT22;51687;52.160;5.298;2022-08-03T02:49:16;24.30;62.60
43995;DHT22;51687;52.160;5.298;2022-08-03T02:52:08;24.30;62.70
43995;DHT22;51687;52.160;5.298;2022-08-03T02:54:38;24.30;62.70
43995;DHT22;51687;52.160;5.298;2022-08-03T02:57:07;24.30;62.80
43995;DHT22;51687;52.160;5.298;2022-08-03T02:59:36;24.30;62.70
43995;DHT22;51687;52.160;5.298;2022-08-03T03:02:03;24.30;62.70
43995;DHT22;51687;52.160;5.298;2022-08-03T03:04:30;24.30;62.80
43995;DHT22;51687;52.160;5.298;2022-08-03T03:06:59;24.20;62.70
43995;DHT22;51687;52.160;5.298;2022-08-03T03:09:29;24.30;62.80
43995;DHT22;51687;52.160;5.298;2022-08-03T03:12:10;24.20;62.80
43995;DHT22;51687;52.160;5.298;2022-08-03T03:14:38;24.30;62.80
43995;DHT22;51687;52.160;5.298;2022-08-03T03:17:11;24.20;62.70
43995;DHT22;51687;52.160;5.298;2022-08-03T03:19:38;24.20;62.60
43995;DHT22;51687;52.160;5.298;2022-08-03T03:22:07;24.20;62.70
43995;DHT22;51687;52.160;5.298;2022-08-03T03:24:35;24.20;62.70
43995;DHT22;51687;52.160;5.298;2022-08-03T03:27:03;24.20;62.70
43995;DHT22;51687;52.160;5.298;2022-08-03T03:29:31;24.20;62.70
43995;DHT22;51687;52.160;5.298;2022-08-03T03:32:05;24.20;62.80
43995;DHT22;51687;52.160;5.298;2022-08-03T03:34:35;24.20;62.80
43995;DHT22;51687;52.160;5.298;2022-08-03T03:37:02;24.10;62.70
43995;DHT22;51687;52.160;5.298;2022-08-03T03:39:30;24.20;62.70
43995;DHT22;51687;52.160;5.298;2022-08-03T03:41:57;24.10;62.80
43995;DHT22;51687;52.160;5.298;2022-08-03T03:44:27;24.10;62.80
43995;DHT22;51687;52.160;5.298;2022-08-03T03:46:56;24.10;62.70
43995;DHT22;51687;52.160;5.298;2022-08-03T03:49:23;24.10;62.80
43995;DHT22;51687;52.160;5.298;2022-08-03T03:51:54;24.10;62.80
43995;DHT22;51687;52.160;5.298;2022-08-03T03:54:21;24.10;62.80
43995;DHT22;51687;52.160;5.298;2022-08-03T03:56:53;24.10;62.90
43995;DHT22;51687;52.160;5.298;2022-08-03T03:59:20;24.10;62.90
43995;DHT22;51687;52.160;5.298;2022-08-03T04:01:47;24.10;63.00
43995;DHT22;51687;52.160;5.298;2022-08-03T04:04:24;24.10;63.10
43995;DHT22;51687;52.160;5.298;2022-08-03T04:07:10;24.10;63.00
43995;DHT22;51687;52.160;5.298;2022-08-03T04:09:56;24.00;62.90
43995;DHT22;51687;52.160;5.298;2022-08-03T04:12:42;24.00;62.80
43995;DHT22;51687;52.160;5.298;2022-08-03T04:15:18;24.00;63.00
43995;DHT22;51687;52.160;5.298;2022-08-03T04:17:47;24.00;62.90
43995;DHT22;51687;52.160;5.298;2022-08-03T04:20:17;24.00;63.10
43995;DHT22;51687;52.160;5.298;2022-08-03T04:22:48;24.00;63.10
43995;DHT22;51687;52.160;5.298;2022-08-03T04:25:17;23.90;63.10
43995;DHT22;51687;52.160;5.298;2022-08-03T04:27:46;23.90;63.20
43995;DHT22;51687;52.160;5.298;2022-08-03T04:30:36;23.90;63.40
43995;DHT22;51687;52.160;5.298;2022-08-03T04:33:05;23.80;63.40
43995;DHT22;51687;52.160;5.298;2022-08-03T04:35:33;23.80;63.50
43995;DHT22;51687;52.160;5.298;2022-08-03T04:38:22;23.80;63.60
43995;DHT22;51687;52.160;5.298;2022-08-03T04:40:51;23.80;64.20
43995;DHT22;51687;52.160;5.298;2022-08-03T04:43:20;23.70;63.70
43995;DHT22;51687;52.160;5.298;2022-08-03T04:45:48;23.70;63.80
43995;DHT22;51687;52.160;5.298;2022-08-03T04:48:16;23.70;63.80
43995;DHT22;51687;52.160;5.298;2022-08-03T04:50:43;23.70;63.90
43995;DHT22;51687;52.160;5.298;2022-08-03T04:53:10;23.70;63.90
43995;DHT22;51687;52.160;5.298;2022-08-03T04:55:38;23.60;64.60
43995;DHT22;51687;52.160;5.298;2022-08-03T04:58:05;23.60;64.00
43995;DHT22;51687;52.160;5.298;2022-08-03T05:00:32;23.60;64.10
43995;DHT22;51687;52.160;5.298;2022-08-03T05:02:58;23.60;64.30
43995;DHT22;51687;52.160;5.298;2022-08-03T05:05:26;23.60;64.30
43995;DHT22;51687;52.160;5.298;2022-08-03T05:08:13;23.60;64.40
43995;DHT22;51687;52.160;5.298;2022-08-03T05:10:39;23.60;64.30
43995;DHT22;51687;52.160;5.298;2022-08-03T05:13:06;23.50;64.30
43995;DHT22;51687;52.160;5.298;2022-08-03T05:15:37;23.50;64.50
43995;DHT22;51687;52.160;5.298;2022-08-03T05:18:08;23.50;64.60
43995;DHT22;51687;52.160;5.298;2022-08-03T05:20:39;23.50;64.60
43995;DHT22;51687;52.160;5.298;2022-08-03T05:23:06;23.50;64.70
43995;DHT22;51687;52.160;5.298;2022-08-03T05:25:33;23.50;64.70
43995;DHT22;51687;52.160;5.298;2022-08-03T05:28:00;23.50;64.80
43995;DHT22;51687;52.160;5.298;2022-08-03T05:30:27;23.40;64.80
43995;DHT22;51687;52.160;5.298;2022-08-03T05:33:01;23.50;64.80
43995;DHT22;51687;52.160;5.298;2022-08-03T05:35:29;23.40;64.90
43995;DHT22;51687;52.160;5.298;2022-08-03T05:38:15;23.50;64.90
43995;DHT22;51687;52.160;5.298;2022-08-03T05:40:54;23.50;65.00
43995;DHT22;51687;52.160;5.298;2022-08-03T05:43:23;23.50;64.90
43995;DHT22;51687;52.160;5.298;2022-08-03T05:45:50;23.40;65.00
43995;DHT22;51687;52.160;5.298;2022-08-03T05:48:37;23.40;65.10
43995;DHT22;51687;52.160;5.298;2022-08-03T05:51:04;23.40;65.10
43995;DHT22;51687;52.160;5.298;2022-08-03T05:53:33;23.40;65.30
43995;DHT22;51687;52.160;5.298;2022-08-03T05:56:00;23.40;65.30
43995;DHT22;51687;52.160;5.298;2022-08-03T05:58:49;23.40;65.40
43995;DHT22;51687;52.160;5.298;2022-08-03T06:01:19;23.40;66.20
43995;DHT22;51687;52.160;5.298;2022-08-03T06:03:48;23.40;65.40
43995;DHT22;51687;52.160;5.298;2022-08-03T06:06:15;23.40;65.70
43995;DHT22;51687;52.160;5.298;2022-08-03T06:08:43;23.40;65.60
43995;DHT22;51687;52.160;5.298;2022-08-03T06:11:11;23.40;65.80
43995;DHT22;51687;52.160;5.298;2022-08-03T06:13:38;23.40;64.70
43995;DHT22;51687;52.160;5.298;2022-08-03T06:16:05;23.40;65.80
43995;DHT22;51687;52.160;5.298;2022-08-03T06:18:32;23.40;65.70
43995;DHT22;51687;52.160;5.298;2022-08-03T06:20:59;23.40;65.90
43995;DHT22;51687;52.160;5.298;2022-08-03T06:23:41;23.40;65.90
43995;DHT22;51687;52.160;5.298;2022-08-03T06:26:22;23.40;65.70
43995;DHT22;51687;52.160;5.298;2022-08-03T06:28:49;23.50;66.00
43995;DHT22;51687;52.160;5.298;2022-08-03T06:31:23;23.50;64.60
43995;DHT22;51687;52.160;5.298;2022-08-03T06:33:59;23.50;65.70
43995;DHT22;51687;52.160;5.298;2022-08-03T06:36:46;23.50;66.00
43995;DHT22;51687;52.160;5.298;2022-08-03T06:39:14;23.50;66.20
43995;DHT22;51687;52.160;5.298;2022-08-03T06:41:40;23.50;66.00
43995;DHT22;51687;52.160;5.298;2022-08-03T06:44:11;23.50;66.10
43995;DHT22;51687;52.160;5.298;2022-08-03T06:46:38;23.60;66.40
43995;DHT22;51687;52.160;5.298;2022-08-03T06:49:06;23.60;66.30
43995;DHT22;51687;52.160;5.298;2022-08-03T06:51:33;23.60;66.30
43995;DHT22;51687;52.160;5.298;2022-08-03T06:54:20;23.60;66.10
43995;DHT22;51687;52.160;5.298;2022-08-03T06:56:47;23.60;66.30
43995;DHT22;51687;52.160;5.298;2022-08-03T06:59:16;23.70;66.20
43995;DHT22;51687;52.160;5.298;2022-08-03T07:02:03;23.70;66.10
43995;DHT22;51687;52.160;5.298;2022-08-03T07:04:30;23.70;66.10
43995;DHT22;51687;52.160;5.298;2022-08-03T07:06:57;23.70;66.10
43995;DHT22;51687;52.160;5.298;2022-08-03T07:09:24;23.70;66.10
43995;DHT22;51687;52.160;5.298;2022-08-03T07:11:52;23.70;66.10
43995;DHT22;51687;52.160;5.298;2022-08-03T07:14:19;23.80;66.20
43995;DHT22;51687;52.160;5.298;2022-08-03T07:16:46;23.80;66.40
43995;DHT22;51687;52.160;5.298;2022-08-03T07:19:13;23.80;66.20
43995;DHT22;51687;52.160;5.298;2022-08-03T07:21:40;23.80;65.90
43995;DHT22;51687;52.160;5.298;2022-08-03T07:24:07;23.80;66.00
43995;DHT22;51687;52.160;5.298;2022-08-03T07:26:33;23.80;65.70
43995;DHT22;51687;52.160;5.298;2022-08-03T07:29:00;23.80;65.80
43995;DHT22;51687;52.160;5.298;2022-08-03T07:31:27;23.80;65.90
43995;DHT22;51687;52.160;5.298;2022-08-03T07:34:00;23.90;66.40
43995;DHT22;51687;52.160;5.298;2022-08-03T07:36:26;23.90;65.70
43995;DHT22;51687;52.160;5.298;2022-08-03T07:38:53;23.90;65.90
43995;DHT22;51687;52.160;5.298;2022-08-03T07:41:20;23.90;65.20
43995;DHT22;51687;52.160;5.298;2022-08-03T07:43:47;23.90;65.20
43995;DHT22;51687;52.160;5.298;2022-08-03T07:46:14;23.90;65.30
43995;DHT22;51687;52.160;5.298;2022-08-03T07:48:41;23.90;65.60
43995;DHT22;51687;52.160;5.298;2022-08-03T07:51:08;23.90;65.80
43995;DHT22;51687;52.160;5.298;2022-08-03T07:53:34;23.90;66.00
43995;DHT22;51687;52.160;5.298;2022-08-03T07:56:12;23.90;66.00
43995;DHT22;51687;52.160;5.298;2022-08-03T07:58:39;23.90;65.90
43995;DHT22;51687;52.160;5.298;2022-08-03T08:01:06;23.90;66.00
43995;DHT22;51687;52.160;5.298;2022-08-03T08:03:34;23.90;66.20
43995;DHT22;51687;52.160;5.298;2022-08-03T08:06:19;23.90;66.20
43995;DHT22;51687;52.160;5.298;2022-08-03T08:08:46;23.90;65.70
43995;DHT22;51687;52.160;5.298;2022-08-03T08:11:13;23.90;66.10
43995;DHT22;51687;52.160;5.298;2022-08-03T08:13:40;23.90;66.30
43995;DHT22;51687;52.160;5.298;2022-08-03T08:16:07;24.00;66.10
43995;DHT22;51687;52.160;5.298;2022-08-03T08:18:34;24.00;65.90
43995;DHT22;51687;52.160;5.298;2022-08-03T08:21:01;24.00;66.00
43995;DHT22;51687;52.160;5.298;2022-08-03T08:23:29;24.00;66.00
43995;DHT22;51687;52.160;5.298;2022-08-03T08:26:11;24.00;66.10
43995;DHT22;51687;52.160;5.298;2022-08-03T08:28:38;24.00;66.30
43995;DHT22;51687;52.160;5.298;2022-08-03T08:31:08;24.10;66.40
43995;DHT22;51687;52.160;5.298;2022-08-03T08:33:35;24.10;65.90
43995;DHT22;51687;52.160;5.298;2022-08-03T08:36:21;24.10;65.30
43995;DHT22;51687;52.160;5.298;2022-08-03T08:38:49;24.10;65.70
43995;DHT22;51687;52.160;5.298;2022-08-03T08:41:16;24.10;65.60
43995;DHT22;51687;52.160;5.298;2022-08-03T08:43:43;24.20;65.60
43995;DHT22;51687;52.160;5.298;2022-08-03T08:46:11;24.20;65.80
43995;DHT22;51687;52.160;5.298;2022-08-03T08:48:50;24.20;65.80
43995;DHT22;51687;52.160;5.298;2022-08-03T08:51:19;24.30;65.90
43995;DHT22;51687;52.160;5.298;2022-08-03T08:53:50;24.30;65.90
43995;DHT22;51687;52.160;5.298;2022-08-03T08:56:19;24.30;65.60
43995;DHT22;51687;52.160;5.298;2022-08-03T08:58:52;24.40;65.20
43995;DHT22;51687;52.160;5.298;2022-08-03T09:01:20;24.40;65.40
43995;DHT22;51687;52.160;5.298;2022-08-03T09:03:47;24.40;64.90
43995;DHT22;51687;52.160;5.298;2022-08-03T09:06:14;24.40;65.50
43995;DHT22;51687;52.160;5.298;2022-08-03T09:08:41;24.40;65.20
43995;DHT22;51687;52.160;5.298;2022-08-03T09:11:08;24.50;64.60
43995;DHT22;51687;52.160;5.298;2022-08-03T09:13:38;24.50;65.10
43995;DHT22;51687;52.160;5.298;2022-08-03T09:16:09;24.50;64.40
43995;DHT22;51687;52.160;5.298;2022-08-03T09:18:36;24.50;63.60
43995;DHT22;51687;52.160;5.298;2022-08-03T09:21:27;24.60;63.60
43995;DHT22;51687;52.160;5.298;2022-08-03T09:24:00;24.60;64.00
43995;DHT22;51687;52.160;5.298;2022-08-03T09:26:32;24.60;64.00
43995;DHT22;51687;52.160;5.298;2022-08-03T09:29:03;24.70;63.60
43995;DHT22;51687;52.160;5.298;2022-08-03T09:31:47;24.70;63.70
43995;DHT22;51687;52.160;5.298;2022-08-03T09:34:16;24.70;64.30
43995;DHT22;51687;52.160;5.298;2022-08-03T09:39:19;24.70;63.90
43995;DHT22;51687;52.160;5.298;2022-08-03T09:42:11;24.80;63.10
43995;DHT22;51687;52.160;5.298;2022-08-03T09:44:48;24.90;63.40
43995;DHT22;51687;52.160;5.298;2022-08-03T09:47:26;24.90;63.20
43995;DHT22;51687;52.160;5.298;2022-08-03T09:50:03;24.90;63.70
43995;DHT22;51687;52.160;5.298;2022-08-03T09:52:36;24.90;62.50
43995;DHT22;51687;52.160;5.298;2022-08-03T09:55:14;25.00;63.10
43995;DHT22;51687;52.160;5.298;2022-08-03T09:58:05;25.00;62.80
43995;DHT22;51687;52.160;5.298;2022-08-03T10:01:03;25.10;62.50
43995;DHT22;51687;52.160;5.298;2022-08-03T10:09:12;25.10;60.80
43995;DHT22;51687;52.160;5.298;2022-08-03T10:11:40;25.20;62.10
43995;DHT22;51687;52.160;5.298;2022-08-03T10:14:10;25.30;60.80
43995;DHT22;51687;52.160;5.298;2022-08-03T10:16:46;25.30;61.40
43995;DHT22;51687;52.160;5.298;2022-08-03T10:19:14;25.30;60.20
43995;DHT22;51687;52.160;5.298;2022-08-03T10:21:46;25.40;60.00
43995;DHT22;51687;52.160;5.298;2022-08-03T10:24:17;25.40;60.30
43995;DHT22;51687;52.160;5.298;2022-08-03T10:26:46;25.40;60.50
43995;DHT22;51687;52.160;5.298;2022-08-03T10:29:23;25.50;59.30
43995;DHT22;51687;52.160;5.298;2022-08-03T10:31:55;25.50;58.90
43995;DHT22;51687;52.160;5.298;2022-08-03T10:34:32;25.60;60.00
43995;DHT22;51687;52.160;5.298;2022-08-03T10:37:02;25.60;59.40
43995;DHT22;51687;52.160;5.298;2022-08-03T10:39:51;25.70;59.00
43995;DHT22;51687;52.160;5.298;2022-08-03T10:42:28;25.70;59.10
43995;DHT22;51687;52.160;5.298;2022-08-03T10:45:08;25.80;59.80
43995;DHT22;51687;52.160;5.298;2022-08-03T10:47:39;25.80;58.00
43995;DHT22;51687;52.160;5.298;2022-08-03T10:50:06;25.80;58.00
43995;DHT22;51687;52.160;5.298;2022-08-03T11:01:06;26.00;57.00
43995;DHT22;51687;52.160;5.298;2022-08-03T11:06:22;26.10;56.80
43995;DHT22;51687;52.160;5.298;2022-08-03T11:11:38;26.20;57.00
43995;DHT22;51687;52.160;5.298;2022-08-03T11:14:17;26.20;55.70
43995;DHT22;51687;52.160;5.298;2022-08-03T11:16:47;26.30;55.40
43995;DHT22;51687;52.160;5.298;2022-08-03T11:19:17;26.30;55.80
43995;DHT22;51687;52.160;5.298;2022-08-03T11:38:04;26.60;54.60
43995;DHT22;51687;52.160;5.298;2022-08-03T12:14:26;26.70;54.70
43995;DHT22;51687;52.160;5.298;2022-08-03T12:42:37;27.30;48.80
43995;DHT22;51687;52.160;5.298;2022-08-03T12:45:27;27.90;48.70
43995;DHT22;51687;52.160;5.298;2022-08-03T12:48:00;27.90;47.80
43995;DHT22;51687;52.160;5.298;2022-08-03T12:50:32;27.90;48.50
43995;DHT22;51687;52.160;5.298;2022-08-03T12:53:01;28.00;48.10
43995;DHT22;51687;52.160;5.298;2022-08-03T12:55:29;28.00;48.70
43995;DHT22;51687;52.160;5.298;2022-08-03T12:58:30;28.00;49.00
43995;DHT22;51687;52.160;5.298;2022-08-03T13:01:00;28.10;49.10
43995;DHT22;51687;52.160;5.298;2022-08-03T13:16:14;28.10;48.80
43995;DHT22;51687;52.160;5.298;2022-08-03T13:18:45;28.30;50.20
43995;DHT22;51687;52.160;5.298;2022-08-03T13:21:15;28.40;50.40
43995;DHT22;51687;52.160;5.298;2022-08-03T13:23:42;28.40;50.00
43995;DHT22;51687;52.160;5.298;2022-08-03T13:26:10;28.40;50.60
43995;DHT22;51687;52.160;5.298;2022-08-03T13:28:40;28.40;50.20
43995;DHT22;51687;52.160;5.298;2022-08-03T13:31:07;28.50;51.10
43995;DHT22;51687;52.160;5.298;2022-08-03T13:48:23;28.50;50.90
43995;DHT22;51687;52.160;5.298;2022-08-03T13:51:03;28.70;50.20
43995;DHT22;51687;52.160;5.298;2022-08-03T13:53:49;28.70;50.30
43995;DHT22;51687;52.160;5.298;2022-08-03T13:56:16;28.70;50.20
43995;DHT22;51687;52.160;5.298;2022-08-03T13:58:43;28.70;50.10
43995;DHT22;51687;52.160;5.298;2022-08-03T14:01:09;28.70;50.60
43995;DHT22;51687;52.160;5.298;2022-08-03T14:03:36;28.70;50.50
43995;DHT22;51687;52.160;5.298;2022-08-03T14:06:03;28.70;50.00
43995;DHT22;51687;52.160;5.298;2022-08-03T14:08:30;28.70;49.70
43995;DHT22;51687;52.160;5.298;2022-08-03T14:10:57;28.70;49.50
43995;DHT22;51687;52.160;5.298;2022-08-03T14:13:24;28.70;50.00
43995;DHT22;51687;52.160;5.298;2022-08-03T14:15:50;28.80;50.40
43995;DHT22;51687;52.160;5.298;2022-08-03T14:18:19;28.70;50.30
43995;DHT22;51687;52.160;5.298;2022-08-03T14:21:01;28.80;51.00
43995;DHT22;51687;52.160;5.298;2022-08-03T14:23:34;28.80;49.80
43995;DHT22;51687;52.160;5.298;2022-08-03T14:26:01;28.80;49.50
43995;DHT22;51687;52.160;5.298;2022-08-03T14:28:28;28.80;50.90
43995;DHT22;51687;52.160;5.298;2022-08-03T14:30:55;28.80;50.40
43995;DHT22;51687;52.160;5.298;2022-08-03T14:33:22;28.80;50.10
43995;DHT22;51687;52.160;5.298;2022-08-03T14:35:50;28.80;50.10
43995;DHT22;51687;52.160;5.298;2022-08-03T14:38:17;28.80;50.00
43995;DHT22;51687;52.160;5.298;2022-08-03T14:40:44;28.80;50.20
43995;DHT22;51687;52.160;5.298;2022-08-03T14:43:12;28.90;50.10
43995;DHT22;51687;52.160;5.298;2022-08-03T14:45:39;28.90;50.00
43995;DHT22;51687;52.160;5.298;2022-08-03T14:48:06;28.90;50.50
43995;DHT22;51687;52.160;5.298;2022-08-03T14:50:53;28.80;50.30
43995;DHT22;51687;52.160;5.298;2022-08-03T14:53:21;28.90;50.50
43995;DHT22;51687;52.160;5.298;2022-08-03T14:55:48;28.90;50.00
43995;DHT22;51687;52.160;5.298;2022-08-03T14:58:22;28.90;49.00
43995;DHT22;51687;52.160;5.298;2022-08-03T15:00:50;28.90;50.00
43995;DHT22;51687;52.160;5.298;2022-08-03T15:03:18;28.90;48.80
43995;DHT22;51687;52.160;5.298;2022-08-03T15:05:53;28.80;49.00
43995;DHT22;51687;52.160;5.298;2022-08-03T15:08:22;28.80;48.70
43995;DHT22;51687;52.160;5.298;2022-08-03T15:10:49;28.80;49.50
43995;DHT22;51687;52.160;5.298;2022-08-03T15:13:17;28.80;49.20
43995;DHT22;51687;52.160;5.298;2022-08-03T15:15:44;28.80;49.30
43995;DHT22;51687;52.160;5.298;2022-08-03T15:18:11;28.80;49.60
43995;DHT22;51687;52.160;5.298;2022-08-03T15:20:38;28.80;49.20
43995;DHT22;51687;52.160;5.298;2022-08-03T15:23:12;28.80;49.60
43995;DHT22;51687;52.160;5.298;2022-08-03T15:25:39;28.90;50.00
43995;DHT22;51687;52.160;5.298;2022-08-03T15:28:26;28.90;49.90
43995;DHT22;51687;52.160;5.298;2022-08-03T15:30:53;28.90;49.10
43995;DHT22;51687;52.160;5.298;2022-08-03T15:33:20;29.00;49.00
43995;DHT22;51687;52.160;5.298;2022-08-03T15:35:47;29.00;48.50
43995;DHT22;51687;52.160;5.298;2022-08-03T15:38:15;29.00;48.70
43995;DHT22;51687;52.160;5.298;2022-08-03T15:40:42;28.90;49.10
43995;DHT22;51687;52.160;5.298;2022-08-03T15:43:09;29.00;48.50
43995;DHT22;51687;52.160;5.298;2022-08-03T15:45:36;28.90;48.50
43995;DHT22;51687;52.160;5.298;2022-08-03T15:48:04;29.00;48.80
43995;DHT22;51687;52.160;5.298;2022-08-03T15:50:30;29.00;48.40
43995;DHT22;51687;52.160;5.298;2022-08-03T15:52:57;29.00;48.40
43995;DHT22;51687;52.160;5.298;2022-08-03T15:55:24;29.00;48.20
43995;DHT22;51687;52.160;5.298;2022-08-03T15:57:51;29.00;48.20
43995;DHT22;51687;52.160;5.298;2022-08-03T16:00:38;29.00;49.30
43995;DHT22;51687;52.160;5.298;2022-08-03T16:03:05;29.00;48.70
43995;DHT22;51687;52.160;5.298;2022-08-03T16:05:32;29.00;49.10
43995;DHT22;51687;52.160;5.298;2022-08-03T16:07:59;29.00;47.50
43995;DHT22;51687;52.160;5.298;2022-08-03T16:10:30;29.00;47.90
43995;DHT22;51687;52.160;5.298;2022-08-03T16:12:57;29.00;48.00
43995;DHT22;51687;52.160;5.298;2022-08-03T16:15:26;29.00;47.90
43995;DHT22;51687;52.160;5.298;2022-08-03T16:17:52;29.10;48.10
43995;DHT22;51687;52.160;5.298;2022-08-03T16:20:19;29.00;48.30
43995;DHT22;51687;52.160;5.298;2022-08-03T16:23:00;29.00;47.60
43995;DHT22;51687;52.160;5.298;2022-08-03T16:25:41;29.00;48.20
43995;DHT22;51687;52.160;5.298;2022-08-03T16:28:08;29.00;48.40
43995;DHT22;51687;52.160;5.298;2022-08-03T16:30:41;29.00;48.50
43995;DHT22;51687;52.160;5.298;2022-08-03T16:33:08;29.10;48.70
43995;DHT22;51687;52.160;5.298;2022-08-03T16:35:35;29.00;48.20
43995;DHT22;51687;52.160;5.298;2022-08-03T16:38:03;29.00;48.60
43995;DHT22;51687;52.160;5.298;2022-08-03T16:40:35;29.00;49.20
43995;DHT22;51687;52.160;5.298;2022-08-03T16:43:12;29.00;49.40
43995;DHT22;51687;52.160;5.298;2022-08-03T16:45:45;29.00;49.50
43995;DHT22;51687;52.160;5.298;2022-08-03T16:48:12;29.00;49.70
43995;DHT22;51687;52.160;5.298;2022-08-03T16:50:39;29.00;49.70
43995;DHT22;51687;52.160;5.298;2022-08-03T16:53:07;28.90;49.90
43995;DHT22;51687;52.160;5.298;2022-08-03T16:55:36;28.90;50.10
43995;DHT22;51687;52.160;5.298;2022-08-03T16:58:22;28.90;50.10
43995;DHT22;51687;52.160;5.298;2022-08-03T17:01:09;28.80;50.30
43995;DHT22;51687;52.160;5.298;2022-08-03T17:03:51;28.80;50.40
43995;DHT22;51687;52.160;5.298;2022-08-03T17:06:34;28.80;50.70
43995;DHT22;51687;52.160;5.298;2022-08-03T17:09:13;28.80;50.60
43995;DHT22;51687;52.160;5.298;2022-08-03T17:11:45;28.80;50.70
43995;DHT22;51687;52.160;5.298;2022-08-03T17:14:19;28.80;50.60
43995;DHT22;51687;52.160;5.298;2022-08-03T17:16:57;28.80;50.60
43995;DHT22;51687;52.160;5.298;2022-08-03T17:19:28;28.80;50.70
43995;DHT22;51687;52.160;5.298;2022-08-03T17:22:10;28.80;51.40
43995;DHT22;51687;52.160;5.298;2022-08-03T17:24:44;28.80;50.90
43995;DHT22;51687;52.160;5.298;2022-08-03T17:27:17;28.70;50.70
43995;DHT22;51687;52.160;5.298;2022-08-03T17:30:08;28.70;50.70
43995;DHT22;51687;52.160;5.298;2022-08-03T17:32:37;28.70;50.40
43995;DHT22;51687;52.160;5.298;2022-08-03T17:35:08;28.70;50.50
43995;DHT22;51687;52.160;5.298;2022-08-03T17:37:38;28.70;50.70
43995;DHT22;51687;52.160;5.298;2022-08-03T17:40:26;28.70;50.80
43995;DHT22;51687;52.160;5.298;2022-08-03T17:42:58;28.60;50.90
43995;DHT22;51687;52.160;5.298;2022-08-03T17:45:28;28.60;50.90
43995;DHT22;51687;52.160;5.298;2022-08-03T17:48:15;28.60;51.00
43995;DHT22;51687;52.160;5.298;2022-08-03T17:51:28;28.60;51.50
43995;DHT22;51687;52.160;5.298;2022-08-03T17:57:27;28.60;50.60
43995;DHT22;51687;52.160;5.298;2022-08-03T18:00:16;28.50;51.40
43995;DHT22;51687;52.160;5.298;2022-08-03T18:03:36;28.50;50.90
43995;DHT22;51687;52.160;5.298;2022-08-03T18:06:29;28.50;51.20
43995;DHT22;51687;52.160;5.298;2022-08-03T18:08:57;28.50;51.10
43995;DHT22;51687;52.160;5.298;2022-08-03T18:11:45;28.50;51.00
43995;DHT22;51687;52.160;5.298;2022-08-03T18:17:29;28.50;50.50
43995;DHT22;51687;52.160;5.298;2022-08-03T18:20:19;28.50;50.80
43995;DHT22;51687;52.160;5.298;2022-08-03T18:23:08;28.50;50.70
43995;DHT22;51687;52.160;5.298;2022-08-03T18:25:52;28.50;51.10
43995;DHT22;51687;52.160;5.298;2022-08-03T18:28:25;28.50;50.90
43995;DHT22;51687;52.160;5.298;2022-08-03T18:30:55;28.50;51.50
43995;DHT22;51687;52.160;5.298;2022-08-03T18:33:23;28.50;51.30